createdAt,value
2019-04-01T00:00:18.036Z,34.93
2019-04-01T00:02:48.462Z,34.30
2019-04-01T00:05:19.114Z,38.07
2019-04-01T00:07:49.543Z,34.27
2019-04-01T00:10:20.098Z,32.60
2019-04-01T00:12:50.555Z,29.57
2019-04-01T00:15:20.953Z,31.77
2019-04-01T00:17:51.342Z,28.33
2019-04-01T00:20:21.746Z,29.40
2019-04-01T00:22:52.350Z,28.60
2019-04-01T00:25:23.141Z,34.87
2019-04-01T00:27:53.626Z,31.67
2019-04-01T00:30:24.079Z,33.77
2019-04-01T00:32:54.545Z,34.27
2019-04-01T00:35:24.935Z,33.90
2019-04-01T00:37:55.403Z,31.67
2019-04-01T00:40:25.846Z,32.03
2019-04-01T00:43:04.115Z,35.17
2019-04-01T00:45:36.093Z,32.15
2019-04-01T00:48:07.034Z,31.43
2019-04-01T00:50:37.494Z,34.27
2019-04-01T00:53:07.932Z,32.60
2019-04-01T00:55:38.313Z,32.17
2019-04-01T00:58:08.708Z,34.60
2019-04-01T01:00:39.115Z,33.57
2019-04-01T01:03:09.507Z,33.70
2019-04-01T01:05:40.163Z,34.30
2019-04-01T01:08:10.544Z,36.45
2019-04-01T01:10:40.920Z,34.30
2019-04-01T01:13:11.419Z,33.27
2019-04-01T01:15:41.844Z,40.80
2019-04-01T01:18:12.258Z,39.10
2019-04-01T01:20:42.699Z,34.13
2019-04-01T01:23:13.033Z,31.80
2019-04-01T01:25:43.598Z,34.23
2019-04-01T01:28:13.953Z,36.73
2019-04-01T01:30:44.498Z,35.67
2019-04-01T01:33:14.897Z,32.87
2019-04-01T01:35:45.298Z,33.47
2019-04-01T01:38:15.731Z,32.37
2019-04-01T01:40:46.124Z,33.83
2019-04-01T01:43:16.540Z,33.88
2019-04-01T01:45:47.006Z,38.43
2019-04-01T01:48:17.400Z,37.53
2019-04-01T01:50:47.894Z,33.93
2019-04-01T01:53:18.917Z,33.37
2019-04-01T01:55:49.395Z,30.37
2019-04-01T01:58:19.748Z,39.07
2019-04-01T02:00:50.125Z,37.87
2019-04-01T02:03:20.716Z,39.47
2019-04-01T02:05:51.168Z,35.17
2019-04-01T02:08:21.600Z,37.30
2019-04-01T02:10:52.037Z,35.83
2019-04-01T02:13:22.546Z,41.17
2019-04-01T02:15:52.929Z,43.27
2019-04-01T02:18:23.433Z,38.17
2019-04-01T02:20:53.854Z,42.93
2019-04-01T02:23:24.300Z,36.37
2019-04-01T02:25:54.787Z,39.80
2019-04-01T02:28:25.216Z,37.57
2019-04-01T02:30:55.627Z,37.93
2019-04-01T02:33:26.039Z,37.90
2019-04-01T02:35:56.476Z,38.60
2019-04-01T02:38:26.908Z,37.30
2019-04-01T02:40:57.429Z,38.88
2019-04-01T02:43:27.876Z,34.47
2019-04-01T02:45:58.248Z,40.27
2019-04-01T02:48:28.709Z,36.97
2019-04-01T02:50:59.092Z,37.27
2019-04-01T02:53:29.642Z,34.43
2019-04-01T02:56:00.025Z,36.53
2019-04-01T02:58:30.423Z,38.87
2019-04-01T03:01:00.882Z,38.57
2019-04-01T03:03:31.413Z,40.40
2019-04-01T03:06:01.876Z,38.78
2019-04-01T03:08:32.248Z,40.07
2019-04-01T03:11:02.739Z,36.90
2019-04-01T03:13:33.329Z,33.00
2019-04-01T03:16:03.747Z,33.93
2019-04-01T03:18:34.176Z,38.33
2019-04-01T03:21:04.573Z,40.43
2019-04-01T03:23:34.966Z,39.00
2019-04-01T03:26:05.437Z,43.83
2019-04-01T03:28:35.845Z,41.73
2019-04-01T03:31:06.283Z,40.87
2019-04-01T03:33:36.720Z,43.17
2019-04-01T03:36:07.137Z,37.50
2019-04-01T03:38:37.566Z,42.83
2019-04-01T03:41:08.139Z,42.53
2019-04-01T03:43:40.425Z,36.50
2019-04-01T03:46:12.566Z,36.30
2019-04-01T03:48:43.538Z,39.07
2019-04-01T03:51:17.247Z,40.43
2019-04-01T03:53:50.900Z,42.37
2019-04-01T03:56:28.923Z,36.53
2019-04-01T03:59:06.225Z,40.63
2019-04-01T04:01:38.515Z,37.97
2019-04-01T04:04:16.940Z,42.57
2019-04-01T04:06:46.736Z,41.17
2019-04-01T04:09:22.056Z,39.43
2019-04-01T04:11:53.835Z,41.73
2019-04-01T04:14:24.455Z,46.23
2019-04-01T04:16:55.263Z,40.70
2019-04-01T04:19:39.115Z,43.87
2019-04-01T04:22:10.877Z,40.87
2019-04-01T04:24:43.964Z,40.03
2019-04-01T04:27:17.266Z,38.43
2019-04-01T04:30:17.738Z,41.30
2019-04-01T04:32:45.019Z,46.10
2019-04-01T04:35:19.310Z,40.17
2019-04-01T04:38:02.813Z,37.50
2019-04-01T04:40:46.925Z,48.40
2019-04-01T04:43:21.862Z,42.97
2019-04-01T04:46:02.807Z,41.18
2019-04-01T04:48:33.314Z,41.23
2019-04-01T04:51:12.845Z,43.83
2019-04-01T04:53:43.232Z,44.13
2019-04-01T04:56:13.723Z,40.97
2019-04-01T04:58:44.289Z,48.52
2019-04-01T05:01:14.704Z,75.95
2019-04-01T05:03:46.726Z,44.25
2019-04-01T05:06:20.159Z,47.83
2019-04-01T05:08:50.676Z,51.13
2019-04-01T05:11:21.127Z,60.10
2019-04-01T05:13:51.961Z,57.85
2019-04-01T05:16:25.165Z,139.32
2019-04-01T05:18:55.651Z,68.92
2019-04-01T05:21:28.979Z,49.88
2019-04-01T05:24:00.391Z,42.80
2019-04-01T05:26:31.733Z,44.42
2019-04-01T05:29:04.467Z,37.33
2019-04-01T05:31:38.478Z,40.55
2019-04-01T05:34:12.868Z,45.73
2019-04-01T05:36:43.429Z,37.23
2019-04-01T05:39:13.798Z,44.67
2019-04-01T05:41:44.501Z,45.05
2019-04-01T05:44:15.392Z,46.25
2019-04-01T05:46:45.794Z,38.88
2019-04-01T05:49:16.608Z,38.17
2019-04-01T05:51:46.983Z,43.00
2019-04-01T05:54:17.547Z,49.73
2019-04-01T05:56:47.937Z,42.55
2019-04-01T05:59:18.439Z,46.55
2019-04-01T06:01:50.273Z,47.38
2019-04-01T06:04:20.696Z,47.65
2019-04-01T06:06:57.679Z,51.30
2019-04-01T06:09:28.239Z,48.50
2019-04-01T06:11:58.844Z,45.28
2019-04-01T06:14:29.458Z,49.10
2019-04-01T06:17:00.056Z,48.68
2019-04-01T06:19:30.446Z,47.03
2019-04-01T06:22:00.901Z,42.90
2019-04-01T06:24:32.103Z,44.73
2019-04-01T06:27:03.010Z,45.17
2019-04-01T06:29:33.480Z,47.23
2019-04-01T06:32:03.962Z,47.80
2019-04-01T06:34:34.877Z,47.90
2019-04-01T06:37:05.491Z,47.10
2019-04-01T06:39:35.868Z,47.50
2019-04-01T06:42:07.253Z,46.23
2019-04-01T06:44:38.093Z,43.00
2019-04-01T06:47:08.529Z,42.90
2019-04-01T06:49:38.992Z,47.03
2019-04-01T06:52:12.066Z,43.00
2019-04-01T06:54:43.879Z,46.93
2019-04-01T06:57:14.763Z,40.67
2019-04-01T06:59:45.662Z,42.43
2019-04-01T07:02:16.274Z,42.20
2019-04-01T07:04:47.247Z,42.80
2019-04-01T07:07:19.378Z,45.90
2019-04-01T07:09:50.821Z,47.47
2019-04-01T07:12:21.389Z,42.43
2019-04-01T07:14:51.796Z,41.93
2019-04-01T07:17:22.275Z,48.60
2019-04-01T07:19:52.674Z,47.67
2019-04-01T07:22:23.119Z,47.77
2019-04-01T07:24:53.604Z,47.10
2019-04-01T07:27:24.056Z,48.93
2019-04-01T07:29:54.511Z,51.40
2019-04-01T07:32:25.027Z,44.07
2019-04-01T07:34:55.426Z,47.37
2019-04-01T07:37:26.266Z,50.23
2019-04-01T07:39:56.727Z,55.07
2019-04-01T07:42:27.097Z,53.40
2019-04-01T07:44:58.127Z,51.53
2019-04-01T07:47:31.055Z,49.93
2019-04-01T07:50:02.115Z,47.23
2019-04-01T07:52:32.586Z,53.47
2019-04-01T07:55:03.153Z,50.10
2019-04-01T07:57:33.673Z,63.43
2019-04-01T08:00:06.375Z,75.73
2019-04-01T08:02:36.834Z,64.20
2019-04-01T08:05:07.731Z,64.03
2019-04-01T08:07:38.187Z,63.30
2019-04-01T08:10:09.586Z,60.33
2019-04-01T08:12:40.300Z,59.93
2019-04-01T08:15:11.937Z,62.27
2019-04-01T08:17:42.454Z,63.23
2019-04-01T08:20:18.710Z,62.00
2019-04-01T08:22:51.333Z,58.27
2019-04-01T08:25:21.857Z,64.97
2019-04-01T08:27:57.464Z,56.47
2019-04-01T08:30:33.251Z,63.97
2019-04-01T08:33:03.773Z,66.03
2019-04-01T08:35:34.409Z,73.72
2019-04-01T08:38:04.997Z,70.73
2019-04-01T08:40:37.630Z,69.23
2019-04-01T08:43:08.116Z,68.57
2019-04-01T08:45:39.384Z,65.40
2019-04-01T08:48:11.405Z,66.67
2019-04-01T08:50:42.018Z,68.83
2019-04-01T08:53:12.689Z,70.23
2019-04-01T08:55:43.258Z,65.80
2019-04-01T08:58:13.837Z,62.53
2019-04-01T09:00:44.423Z,58.83
2019-04-01T09:03:16.595Z,48.93
2019-04-01T09:05:47.126Z,51.73
2019-04-01T09:08:17.634Z,61.17
2019-04-01T09:10:48.732Z,60.23
2019-04-01T09:13:19.453Z,59.67
2019-04-01T09:15:49.917Z,55.90
2019-04-01T09:18:22.776Z,59.40
2019-04-01T09:20:53.266Z,50.43
2019-04-01T09:23:23.915Z,52.03
2019-04-01T09:25:55.451Z,63.10
2019-04-01T09:28:25.949Z,53.13
2019-04-01T09:30:56.406Z,60.90
2019-04-01T09:33:26.797Z,54.63
2019-04-01T09:35:57.298Z,62.00
2019-04-01T09:38:27.737Z,54.53
2019-04-01T09:40:58.172Z,56.13
2019-04-01T09:43:33.416Z,64.05
2019-04-01T09:46:04.836Z,64.17
2019-04-01T09:48:36.238Z,52.97
2019-04-01T09:51:06.636Z,52.00
2019-04-01T09:53:37.200Z,46.47
2019-04-01T09:56:09.640Z,38.17
2019-04-01T09:58:40.199Z,44.10
2019-04-01T10:01:10.584Z,40.20
2019-04-01T10:03:41.056Z,35.60
2019-04-01T10:06:11.534Z,44.67
2019-04-01T10:08:43.584Z,40.13
2019-04-01T10:11:15.747Z,37.23
2019-04-01T10:13:46.373Z,37.30
2019-04-01T10:16:16.850Z,39.53
2019-04-01T10:18:47.278Z,39.65
2019-04-01T10:21:17.797Z,38.40
2019-04-01T10:23:48.341Z,35.38
2019-04-01T10:26:18.873Z,33.33
2019-04-01T10:28:49.550Z,32.48
2019-04-01T10:31:20.019Z,34.00
2019-04-01T10:33:50.478Z,38.53
2019-04-01T10:36:20.919Z,29.23
2019-04-01T10:38:51.500Z,35.33
2019-04-01T10:41:22.051Z,30.10
2019-04-01T10:43:52.437Z,27.50
2019-04-01T10:46:28.676Z,30.13
2019-04-01T10:48:59.124Z,23.98
2019-04-01T10:51:29.666Z,26.70
2019-04-01T10:54:00.579Z,25.45
2019-04-01T10:56:31.376Z,25.48
2019-04-01T10:59:05.258Z,24.55
2019-04-01T11:01:37.473Z,24.85
2019-04-01T11:04:11.888Z,22.23
2019-04-01T11:06:46.716Z,22.37
2019-04-01T11:09:17.687Z,25.82
2019-04-01T11:11:52.396Z,22.02
2019-04-01T11:14:23.843Z,21.17
2019-04-01T11:16:58.609Z,24.35
2019-04-01T11:19:29.818Z,23.47
2019-04-01T11:22:00.597Z,23.50
2019-04-01T11:24:31.025Z,21.97
2019-04-01T11:27:03.859Z,25.17
2019-04-01T11:29:34.674Z,22.95
2019-04-01T11:32:05.442Z,21.75
2019-04-01T11:34:36.119Z,24.65
2019-04-01T11:37:06.627Z,20.20
2019-04-01T11:39:38.856Z,19.20
2019-04-01T11:42:14.138Z,18.48
2019-04-01T11:44:49.362Z,17.85
2019-04-01T11:47:22.230Z,31.37
2019-04-01T11:49:54.440Z,19.37
2019-04-01T11:52:27.705Z,19.02
2019-04-01T11:55:20.655Z,17.92
2019-04-01T11:57:51.229Z,18.73
2019-04-01T12:00:26.227Z,19.77
2019-04-01T12:02:57.940Z,21.12
2019-04-01T12:05:28.371Z,16.35
2019-04-01T12:07:58.875Z,25.90
2019-04-01T12:10:30.936Z,19.05
2019-04-01T12:13:03.514Z,19.85
2019-04-01T12:15:35.495Z,18.67
2019-04-01T12:18:07.179Z,18.45
2019-04-01T12:20:39.166Z,19.55
2019-04-01T12:23:11.442Z,20.35
2019-04-01T12:25:41.865Z,18.92
2019-04-01T12:28:12.345Z,20.77
2019-04-01T12:30:42.823Z,21.97
2019-04-01T12:33:13.319Z,26.27
2019-04-01T12:35:49.806Z,18.98
2019-04-01T12:38:26.770Z,20.27
2019-04-01T12:40:55.758Z,22.22
2019-04-01T12:43:27.918Z,18.95
2019-04-01T12:45:59.913Z,22.10
2019-04-01T12:48:31.843Z,20.70
2019-04-01T12:51:03.635Z,21.15
2019-04-01T12:53:34.073Z,25.48
2019-04-01T12:56:05.982Z,20.68
2019-04-01T12:58:36.363Z,22.07
2019-04-01T13:01:06.854Z,25.82
2019-04-01T13:03:37.362Z,25.80
2019-04-01T13:06:07.767Z,21.80
2019-04-01T13:08:38.147Z,25.55
2019-04-01T13:11:08.619Z,24.45
2019-04-01T13:13:39.341Z,28.45
2019-04-01T13:16:12.012Z,24.27
2019-04-01T13:18:45.181Z,27.17
2019-04-01T13:21:18.758Z,24.27
2019-04-01T13:23:49.312Z,25.55
2019-04-01T13:26:23.465Z,29.60
2019-04-01T13:28:57.785Z,30.60
2019-04-01T13:31:29.743Z,26.55
2019-04-01T13:34:00.796Z,26.50
2019-04-01T13:36:37.223Z,29.50
2019-04-01T13:39:09.066Z,28.02
2019-04-01T13:41:42.762Z,30.57
2019-04-01T13:44:19.477Z,29.98
2019-04-01T13:46:51.728Z,26.00
2019-04-01T13:49:25.158Z,26.80
2019-04-01T13:51:55.585Z,24.32
2019-04-01T13:54:26.109Z,26.65
2019-04-01T13:56:56.576Z,26.52
2019-04-01T13:59:27.110Z,28.00
2019-04-01T14:02:01.531Z,27.30
2019-04-01T14:04:32.065Z,29.30
2019-04-01T14:07:07.096Z,32.58
2019-04-01T14:09:44.106Z,25.35
2019-04-01T14:12:17.306Z,25.77
2019-04-01T14:14:47.912Z,31.02
2019-04-01T14:17:19.262Z,25.10
2019-04-01T14:19:53.663Z,27.52
2019-04-01T14:22:26.942Z,31.05
2019-04-01T14:24:57.492Z,25.52
2019-04-01T14:27:27.997Z,28.83
2019-04-01T14:29:58.529Z,27.35
2019-04-01T14:32:31.606Z,25.37
2019-04-01T14:35:03.660Z,27.60
2019-04-01T14:37:37.167Z,29.67
2019-04-01T14:40:10.765Z,35.37
2019-04-01T14:42:41.326Z,31.90
2019-04-01T14:45:11.994Z,25.63
2019-04-01T14:47:56.643Z,27.83
2019-04-01T14:50:18.718Z,29.95
2019-04-01T14:52:49.772Z,32.63
2019-04-01T14:55:22.010Z,31.40
2019-04-01T14:57:54.866Z,31.87
2019-04-01T15:00:25.559Z,33.30
2019-04-01T15:02:56.003Z,33.30
2019-04-01T15:05:26.683Z,30.70
2019-04-01T15:07:57.139Z,29.53
2019-04-01T15:10:27.616Z,33.00
2019-04-01T15:13:05.027Z,30.13
2019-04-01T15:15:30.159Z,30.50
2019-04-01T15:18:00.867Z,29.80
2019-04-01T15:20:31.482Z,28.30
2019-04-01T15:23:01.922Z,29.67
2019-04-01T15:25:32.426Z,29.00
2019-04-01T15:28:02.937Z,29.20
2019-04-01T15:30:36.518Z,30.00
2019-04-01T15:33:07.447Z,29.07
2019-04-01T15:35:37.976Z,28.43
2019-04-01T15:38:08.466Z,29.43
2019-04-01T15:40:38.944Z,26.03
2019-04-01T15:43:09.346Z,21.57
2019-04-01T15:45:39.783Z,23.00
2019-04-01T15:48:10.290Z,24.23
2019-04-01T15:50:40.596Z,24.43
2019-04-01T15:53:11.052Z,25.13
2019-04-01T15:55:41.481Z,39.37
2019-04-01T15:58:12.046Z,23.03
2019-04-01T16:00:45.369Z,24.93
2019-04-01T16:03:15.746Z,25.13
2019-04-01T16:05:46.234Z,22.60
2019-04-01T16:08:19.426Z,23.43
2019-04-01T16:10:50.356Z,21.90
2019-04-01T16:13:21.342Z,18.77
2019-04-01T16:15:52.017Z,24.37
2019-04-01T16:18:22.489Z,22.63
2019-04-01T16:20:59.477Z,18.80
2019-04-01T16:23:30.336Z,18.07
2019-04-01T16:26:01.048Z,23.67
2019-04-01T16:28:31.531Z,25.40
2019-04-01T16:31:02.762Z,22.77
2019-04-01T16:33:33.185Z,18.37
2019-04-01T16:36:03.790Z,25.93
2019-04-01T16:38:40.145Z,20.47
2019-04-01T16:41:29.883Z,22.30
2019-04-01T16:43:59.922Z,21.57
2019-04-01T16:46:32.753Z,17.57
2019-04-01T16:49:03.295Z,23.60
2019-04-01T16:51:41.329Z,22.30
2019-04-01T16:54:20.292Z,21.83
2019-04-01T16:57:03.904Z,18.93
2019-04-01T16:59:34.812Z,30.60
2019-04-01T17:02:18.131Z,19.13
2019-04-01T17:04:49.595Z,18.07
2019-04-01T17:07:24.506Z,17.73
2019-04-01T17:10:01.066Z,17.67
2019-04-01T17:46:04.032Z,15.53
2019-04-01T17:48:38.034Z,20.67
2019-04-01T17:51:28.360Z,18.30
2019-04-01T17:54:19.173Z,15.47
2019-04-01T17:56:52.025Z,18.50
2019-04-01T17:59:27.263Z,14.87
2019-04-01T18:01:59.846Z,16.40
2019-04-01T18:04:35.206Z,19.27
2019-04-01T18:07:07.787Z,14.03
2019-04-01T18:09:40.045Z,17.37
2019-04-01T18:12:20.383Z,19.23
2019-04-01T18:14:54.028Z,22.60
2019-04-01T18:17:28.216Z,18.40
2019-04-01T18:20:01.444Z,18.73
2019-04-01T18:22:34.435Z,17.63
2019-04-01T18:25:14.709Z,18.57
2019-04-01T18:27:52.864Z,14.33
2019-04-01T18:30:28.012Z,18.53
2019-04-01T18:33:01.819Z,19.47
2019-04-01T18:35:35.881Z,20.30
2019-04-01T18:38:08.411Z,15.73
2019-04-01T18:40:42.049Z,16.97
2019-04-01T18:43:18.834Z,15.93
2019-04-01T18:45:53.172Z,14.77
2019-04-01T18:48:28.135Z,16.47
2019-04-01T18:51:01.869Z,20.07
2019-04-01T18:53:36.384Z,17.33
2019-04-01T18:56:10.886Z,15.77
2019-04-01T18:58:44.699Z,20.83
2019-04-01T19:01:17.985Z,15.37
2019-04-01T19:03:50.398Z,13.97
2019-04-01T19:06:24.118Z,17.03
2019-04-01T19:09:08.793Z,13.40
2019-04-01T19:11:34.267Z,17.17
2019-04-01T19:14:11.074Z,18.97
2019-04-01T19:16:51.370Z,16.05
2019-04-01T19:19:23.509Z,16.30
2019-04-01T19:21:56.570Z,15.53
2019-04-01T19:24:28.376Z,13.97
2019-04-01T19:27:03.030Z,10.37
2019-04-01T19:29:34.131Z,11.13
2019-04-01T19:32:04.952Z,13.27
2019-04-01T19:34:36.148Z,13.90
2019-04-01T19:37:07.597Z,12.00
2019-04-01T19:39:38.090Z,10.60
2019-04-01T19:42:08.527Z,14.55
2019-04-01T19:44:38.987Z,10.20
2019-04-01T19:47:09.393Z,12.97
2019-04-01T19:49:40.177Z,14.10
2019-04-01T19:52:10.823Z,13.00
2019-04-01T19:54:41.305Z,12.60
2019-04-01T19:57:11.802Z,14.97
2019-04-01T19:59:42.245Z,13.63
2019-04-01T20:02:14.370Z,15.33
2019-04-01T20:04:45.000Z,15.83
2019-04-01T20:07:17.063Z,16.13
2019-04-01T20:09:48.622Z,12.10
2019-04-01T20:12:19.151Z,14.70
2019-04-01T20:14:49.591Z,14.93
2019-04-01T20:17:20.037Z,15.13
2019-04-01T20:19:50.618Z,18.50
2019-04-01T20:22:21.071Z,15.27
2019-04-01T20:24:51.728Z,13.97
2019-04-01T20:27:26.368Z,12.03
2019-04-01T20:29:56.833Z,14.37
2019-04-01T20:32:27.181Z,14.60
2019-04-01T20:34:59.585Z,19.63
2019-04-01T20:37:31.270Z,14.87
2019-04-01T20:40:03.440Z,17.43
2019-04-01T20:42:35.242Z,19.00
2019-04-01T20:45:10.806Z,18.00
2019-04-01T20:47:40.692Z,18.13
2019-04-01T20:50:11.998Z,17.50
2019-04-01T20:52:42.607Z,18.10
2019-04-01T20:55:13.449Z,16.73
2019-04-01T20:57:46.080Z,16.87
2019-04-01T21:00:18.162Z,19.20
2019-04-01T21:02:48.581Z,26.73
2019-04-01T21:05:19.236Z,15.83
2019-04-01T21:07:49.637Z,15.70
2019-04-01T21:10:20.042Z,19.27
2019-04-01T21:12:50.459Z,17.77
2019-04-01T21:15:20.924Z,16.33
2019-04-01T21:17:52.069Z,17.00
2019-04-01T21:20:23.037Z,14.73
2019-04-01T21:22:53.493Z,14.70
2019-04-01T21:25:24.475Z,17.77
2019-04-01T21:27:56.280Z,15.90
2019-04-01T21:30:26.827Z,17.30
2019-04-01T21:32:57.217Z,16.00
2019-04-01T21:35:27.748Z,18.13
2019-04-01T21:37:58.172Z,15.70
2019-04-01T21:40:28.648Z,21.63
2019-04-01T21:42:59.049Z,17.12
2019-04-01T21:45:29.519Z,15.27
2019-04-01T21:47:59.943Z,17.30
2019-04-01T21:50:30.327Z,17.73
2019-04-01T21:53:01.221Z,16.73
2019-04-01T21:55:32.822Z,18.73
2019-04-01T21:58:03.258Z,19.37
2019-04-01T22:00:35.380Z,20.63
2019-04-01T22:03:05.843Z,16.50
2019-04-01T22:05:36.371Z,17.10
2019-04-01T22:08:07.208Z,17.27
2019-04-01T22:10:39.848Z,18.77
2019-04-01T22:13:10.316Z,15.90
2019-04-01T22:15:40.823Z,18.93
2019-04-01T22:18:11.213Z,16.12
2019-04-01T22:20:42.684Z,15.77
2019-04-01T22:23:13.213Z,14.80
2019-04-01T22:25:43.646Z,15.20
2019-04-01T22:28:14.216Z,15.80
2019-04-01T22:30:45.164Z,17.13
2019-04-01T22:33:16.589Z,16.27
2019-04-01T22:35:47.026Z,14.20
2019-04-01T22:38:24.928Z,15.53
2019-04-01T22:40:49.846Z,15.97
2019-04-01T22:43:20.308Z,18.60
2019-04-01T22:45:50.676Z,19.30
2019-04-01T22:48:21.201Z,15.17
2019-04-01T22:50:51.617Z,17.23
2019-04-01T22:53:22.052Z,14.57
2019-04-01T22:55:52.481Z,17.57
2019-04-01T22:58:23.172Z,17.50
2019-04-01T23:00:53.572Z,16.93
2019-04-01T23:03:24.098Z,15.77
2019-04-01T23:05:55.750Z,12.80
2019-04-01T23:08:26.436Z,13.30
2019-04-01T23:10:56.978Z,12.23
2019-04-01T23:13:27.527Z,13.97
2019-04-01T23:16:01.013Z,15.13
2019-04-01T23:18:31.469Z,17.13
2019-04-01T23:21:02.236Z,11.77
2019-04-01T23:23:35.621Z,12.07
2019-04-01T23:26:06.051Z,14.63
2019-04-01T23:28:36.542Z,14.07
2019-04-01T23:31:07.027Z,15.70
2019-04-01T23:33:37.561Z,13.70
2019-04-01T23:36:08.006Z,13.60
2019-04-01T23:38:38.432Z,12.37
2019-04-01T23:41:08.928Z,11.25
2019-04-01T23:43:39.385Z,14.23
2019-04-01T23:46:09.768Z,11.37
2019-04-01T23:48:42.056Z,10.20
2019-04-01T23:51:12.295Z,9.87
2019-04-01T23:53:42.741Z,12.33
2019-04-01T23:56:13.148Z,11.70
2019-04-01T23:58:43.536Z,14.27
